JBU1038 MDSD-TJSJ
Flight info
| Callsign | JBU1038 |
|---|---|
| Flight time | 0h 34m |
| Altitude | 25000 |
| Route | MELLA4J MELLA G633 MAZ RTE12 JOSHE JOSHE3 |
| Aircraft | A320/M-SDE3FGHIRWY/LB1 |
Departure
| Time | 2026-05-04 19:55 |
|---|---|
| Airport | Las Américas International Airport (MDSD) |
Arrival
| Time | 2026-05-04 20:30 |
|---|---|
| Airport | Luis Munoz Marin International Airport (TJSJ) |
| Time | Latitude | Longitude | Altitude | Speed | Heading |
|---|---|---|---|---|---|
| 2026-05-04 19:24 | 18.43114 | -69.67557 | 69 ft | 0 kts | 290° |
| 2026-05-04 19:25 | 18.43114 | -69.67556 | 67 ft | 0 kts | 290° |
| 2026-05-04 19:25 | 18.43114 | -69.67557 | 68 ft | 0 kts | 290° |
| 2026-05-04 19:30 | 18.43114 | -69.67556 | 68 ft | 0 kts | 290° |
| 2026-05-04 19:37 | 18.43109 | -69.67542 | 60 ft | 3 kts | 290° |
| 2026-05-04 19:37 | 18.43103 | -69.67524 | 64 ft | 3 kts | 290° |
| 2026-05-04 19:38 | 18.43095 | -69.67507 | 61 ft | 3 kts | 288° |
| 2026-05-04 19:38 | 18.43090 | -69.67489 | 62 ft | 3 kts | 287° |
| 2026-05-04 19:38 | 18.43085 | -69.67471 | 57 ft | 3 kts | 287° |
| 2026-05-04 19:38 | 18.43078 | -69.67452 | 55 ft | 3 kts | 316° |
| 2026-05-04 19:39 | 18.43069 | -69.67445 | 56 ft | 0 kts | 335° |
| 2026-05-04 19:41 | 18.43070 | -69.67445 | 56 ft | 1 kts | 335° |
| 2026-05-04 19:41 | 18.43116 | -69.67461 | 64 ft | 10 kts | 342° |
| 2026-05-04 19:42 | 18.43186 | -69.67486 | 60 ft | 12 kts | 340° |
| 2026-05-04 19:42 | 18.43250 | -69.67508 | 64 ft | 9 kts | 343° |
| 2026-05-04 19:42 | 18.43321 | -69.67535 | 65 ft | 13 kts | 339° |
| 2026-05-04 19:42 | 18.43405 | -69.67538 | 63 ft | 13 kts | 21° |
| 2026-05-04 19:43 | 18.43493 | -69.67547 | 64 ft | 14 kts | 337° |
| 2026-05-04 19:43 | 18.43575 | -69.67580 | 62 ft | 10 kts | 342° |
| 2026-05-04 19:43 | 18.43668 | -69.67615 | 66 ft | 16 kts | 340° |
| 2026-05-04 19:43 | 18.43775 | -69.67661 | 65 ft | 18 kts | 339° |
| 2026-05-04 19:44 | 18.43899 | -69.67709 | 66 ft | 20 kts | 340° |
| 2026-05-04 19:44 | 18.43998 | -69.67750 | 63 ft | 15 kts | 338° |
| 2026-05-04 19:44 | 18.44103 | -69.67783 | 64 ft | 16 kts | 8° |
| 2026-05-04 19:44 | 18.44163 | -69.67680 | 66 ft | 18 kts | 70° |
| 2026-05-04 19:45 | 18.44211 | -69.67569 | 64 ft | 12 kts | 41° |
| 2026-05-04 19:45 | 18.44289 | -69.67526 | 65 ft | 14 kts | 26° |
| 2026-05-04 19:45 | 18.44294 | -69.67523 | 65 ft | 0 kts | 27° |
| 2026-05-04 19:53 | 18.44337 | -69.67498 | 64 ft | 20 kts | 32° |
| 2026-05-04 19:53 | 18.44375 | -69.67411 | 69 ft | 13 kts | 114° |
| 2026-05-04 19:54 | 18.44336 | -69.67388 | 69 ft | 0 kts | 159° |
| 2026-05-04 19:54 | 18.44311 | -69.67378 | 69 ft | 16 kts | 160° |
| 2026-05-04 19:55 | 18.43982 | -69.67263 | 68 ft | 85 kts | 161° |
| 2026-05-04 19:55 | 18.43239 | -69.66992 | 68 ft | 139 kts | 160° |
| 2026-05-04 19:55 | 18.42213 | -69.66605 | 313 ft | 161 kts | 158° |
| 2026-05-04 19:55 | 18.41170 | -69.66160 | 1065 ft | 159 kts | 161° |
| 2026-05-04 19:56 | 18.40109 | -69.65773 | 1642 ft | 169 kts | 161° |
| 2026-05-04 19:56 | 18.38944 | -69.65351 | 2013 ft | 191 kts | 161° |
| 2026-05-04 19:56 | 18.37606 | -69.64789 | 2422 ft | 217 kts | 148° |
| 2026-05-04 19:56 | 18.36547 | -69.63564 | 2902 ft | 244 kts | 115° |
| 2026-05-04 19:57 | 18.36035 | -69.61822 | 3715 ft | 256 kts | 107° |
| 2026-05-04 19:57 | 18.35562 | -69.60003 | 4755 ft | 259 kts | 107° |
| 2026-05-04 19:57 | 18.35089 | -69.58176 | 5823 ft | 261 kts | 106° |
| 2026-05-04 19:57 | 18.34607 | -69.56317 | 6763 ft | 266 kts | 106° |
| 2026-05-04 19:58 | 18.34113 | -69.54421 | 7517 ft | 272 kts | 106° |
| 2026-05-04 19:58 | 18.33604 | -69.52468 | 7866 ft | 277 kts | 106° |
| 2026-05-04 19:58 | 18.33072 | -69.50457 | 8218 ft | 300 kts | 107° |
| 2026-05-04 19:58 | 18.32481 | -69.48244 | 8591 ft | 328 kts | 107° |
| 2026-05-04 19:59 | 18.31840 | -69.45837 | 8961 ft | 352 kts | 107° |
| 2026-05-04 19:59 | 18.31173 | -69.43316 | 9295 ft | 366 kts | 107° |
| 2026-05-04 19:59 | 18.30658 | -69.40623 | 9451 ft | 385 kts | 98° |
| 2026-05-04 19:59 | 18.30379 | -69.37798 | 9842 ft | 391 kts | 96° |
| 2026-05-04 20:00 | 18.30171 | -69.34919 | 10307 ft | 396 kts | 95° |
| 2026-05-04 20:00 | 18.29999 | -69.32009 | 10764 ft | 400 kts | 95° |
| 2026-05-04 20:00 | 18.29829 | -69.29076 | 11230 ft | 403 kts | 95° |
| 2026-05-04 20:00 | 18.29646 | -69.26106 | 11710 ft | 408 kts | 95° |
| 2026-05-04 20:01 | 18.29445 | -69.23114 | 12194 ft | 412 kts | 95° |
| 2026-05-04 20:01 | 18.29226 | -69.20095 | 12688 ft | 417 kts | 95° |
| 2026-05-04 20:01 | 18.28999 | -69.17038 | 13190 ft | 421 kts | 95° |
| 2026-05-04 20:01 | 18.28767 | -69.13957 | 13688 ft | 425 kts | 95° |
| 2026-05-04 20:02 | 18.28533 | -69.10836 | 14159 ft | 430 kts | 95° |
| 2026-05-04 20:02 | 18.28298 | -69.07686 | 14615 ft | 434 kts | 95° |
| 2026-05-04 20:02 | 18.28061 | -69.04506 | 15081 ft | 437 kts | 95° |
| 2026-05-04 20:02 | 18.27823 | -69.01313 | 15546 ft | 440 kts | 94° |
| 2026-05-04 20:03 | 18.27583 | -68.98082 | 16023 ft | 443 kts | 94° |
| 2026-05-04 20:03 | 18.27341 | -68.94849 | 16507 ft | 446 kts | 94° |
| 2026-05-04 20:03 | 18.27098 | -68.91585 | 16999 ft | 448 kts | 94° |
| 2026-05-04 20:03 | 18.26854 | -68.88314 | 17499 ft | 450 kts | 94° |
| 2026-05-04 20:04 | 18.26606 | -68.85020 | 17876 ft | 455 kts | 94° |
| 2026-05-04 20:04 | 18.26354 | -68.81667 | 17971 ft | 463 kts | 94° |
| 2026-05-04 20:04 | 18.26096 | -68.78284 | 17977 ft | 465 kts | 94° |
| 2026-05-04 20:04 | 18.25837 | -68.74893 | 17978 ft | 466 kts | 94° |
| 2026-05-04 20:05 | 18.25576 | -68.71496 | 17982 ft | 466 kts | 94° |
| 2026-05-04 20:05 | 18.25320 | -68.68132 | 17977 ft | 466 kts | 94° |
| 2026-05-04 20:05 | 18.25062 | -68.64737 | 17976 ft | 467 kts | 94° |
| 2026-05-04 20:05 | 18.24802 | -68.61331 | 17978 ft | 467 kts | 94° |
| 2026-05-04 20:06 | 18.24541 | -68.57922 | 18175 ft | 470 kts | 95° |
| 2026-05-04 20:06 | 18.24276 | -68.54486 | 18511 ft | 472 kts | 94° |
| 2026-05-04 20:06 | 18.24010 | -68.51035 | 18854 ft | 474 kts | 95° |
| 2026-05-04 20:06 | 18.23742 | -68.47568 | 19200 ft | 476 kts | 95° |
| 2026-05-04 20:07 | 18.23473 | -68.44099 | 19543 ft | 477 kts | 95° |
| 2026-05-04 20:07 | 18.23201 | -68.40610 | 19877 ft | 479 kts | 95° |
| 2026-05-04 20:07 | 18.22934 | -68.37109 | 20204 ft | 481 kts | 95° |
| 2026-05-04 20:07 | 18.22666 | -68.33605 | 20519 ft | 482 kts | 95° |
| 2026-05-04 20:08 | 18.22392 | -68.30083 | 20823 ft | 484 kts | 95° |
| 2026-05-04 20:08 | 18.22116 | -68.26555 | 21118 ft | 485 kts | 95° |
| 2026-05-04 20:08 | 18.21838 | -68.23020 | 21395 ft | 486 kts | 95° |
| 2026-05-04 20:08 | 18.21556 | -68.19467 | 21658 ft | 487 kts | 95° |
| 2026-05-04 20:09 | 18.21272 | -68.15917 | 21901 ft | 488 kts | 96° |
| 2026-05-04 20:09 | 18.20983 | -68.12354 | 22144 ft | 489 kts | 96° |
| 2026-05-04 20:09 | 18.20694 | -68.08785 | 22357 ft | 490 kts | 96° |
| 2026-05-04 20:09 | 18.20407 | -68.05214 | 22595 ft | 491 kts | 96° |
| 2026-05-04 20:10 | 18.20123 | -68.01635 | 22830 ft | 491 kts | 95° |
| 2026-05-04 20:10 | 18.20126 | -67.98041 | 23041 ft | 493 kts | 87° |
| 2026-05-04 20:10 | 18.20385 | -67.94450 | 23267 ft | 493 kts | 86° |
| 2026-05-04 20:10 | 18.20638 | -67.90854 | 23462 ft | 494 kts | 87° |
| 2026-05-04 20:11 | 18.20887 | -67.87242 | 23644 ft | 494 kts | 87° |
| 2026-05-04 20:11 | 18.21133 | -67.83641 | 23778 ft | 495 kts | 87° |
| 2026-05-04 20:11 | 18.21375 | -67.80032 | 23896 ft | 496 kts | 87° |
| 2026-05-04 20:11 | 18.21615 | -67.76403 | 24018 ft | 497 kts | 87° |
| 2026-05-04 20:12 | 18.21856 | -67.72770 | 24127 ft | 498 kts | 87° |
| 2026-05-04 20:12 | 18.22096 | -67.69149 | 24234 ft | 498 kts | 87° |
| 2026-05-04 20:12 | 18.22337 | -67.65510 | 24347 ft | 499 kts | 87° |
| 2026-05-04 20:12 | 18.22583 | -67.61856 | 24457 ft | 499 kts | 86° |
| 2026-05-04 20:13 | 18.22829 | -67.58205 | 24569 ft | 500 kts | 86° |
| 2026-05-04 20:13 | 18.23071 | -67.54568 | 24674 ft | 500 kts | 86° |
| 2026-05-04 20:13 | 18.23309 | -67.50965 | 24783 ft | 500 kts | 86° |
| 2026-05-04 20:13 | 18.23549 | -67.47315 | 24926 ft | 500 kts | 86° |
| 2026-05-04 20:14 | 18.23789 | -67.43664 | 25003 ft | 501 kts | 86° |
| 2026-05-04 20:14 | 18.24031 | -67.39951 | 25020 ft | 501 kts | 86° |
| 2026-05-04 20:14 | 18.24267 | -67.36343 | 25019 ft | 501 kts | 86° |
| 2026-05-04 20:14 | 18.24508 | -67.32684 | 25023 ft | 501 kts | 86° |
| 2026-05-04 20:15 | 18.24750 | -67.29025 | 25022 ft | 501 kts | 86° |
| 2026-05-04 20:15 | 18.24991 | -67.25373 | 25027 ft | 501 kts | 86° |
| 2026-05-04 20:15 | 18.25231 | -67.21723 | 25026 ft | 500 kts | 86° |
| 2026-05-04 20:15 | 18.25466 | -67.18071 | 25026 ft | 500 kts | 86° |
| 2026-05-04 20:16 | 18.25637 | -67.14416 | 25027 ft | 500 kts | 91° |
| 2026-05-04 20:16 | 18.25562 | -67.10770 | 25026 ft | 499 kts | 92° |
| 2026-05-04 20:16 | 18.25483 | -67.07119 | 25024 ft | 499 kts | 92° |
| 2026-05-04 20:16 | 18.25407 | -67.03472 | 25022 ft | 499 kts | 91° |
| 2026-05-04 20:17 | 18.25332 | -66.99826 | 25019 ft | 498 kts | 91° |
| 2026-05-04 20:17 | 18.25262 | -66.96232 | 24438 ft | 482 kts | 92° |
| 2026-05-04 20:17 | 18.25191 | -66.92737 | 22880 ft | 475 kts | 92° |
| 2026-05-04 20:17 | 18.25116 | -66.89282 | 21239 ft | 469 kts | 92° |
| 2026-05-04 20:18 | 18.25040 | -66.85869 | 19665 ft | 465 kts | 91° |
| 2026-05-04 20:18 | 18.24964 | -66.82488 | 18205 ft | 460 kts | 91° |
| 2026-05-04 20:18 | 18.24888 | -66.79146 | 16693 ft | 453 kts | 91° |
| 2026-05-04 20:18 | 18.24816 | -66.75875 | 15380 ft | 443 kts | 91° |
| 2026-05-04 20:19 | 18.24748 | -66.72668 | 14211 ft | 431 kts | 91° |
| 2026-05-04 20:19 | 18.24683 | -66.69562 | 13064 ft | 419 kts | 92° |
| 2026-05-04 20:19 | 18.24619 | -66.66590 | 12531 ft | 393 kts | 92° |
| 2026-05-04 20:19 | 18.24558 | -66.63832 | 12265 ft | 362 kts | 92° |
| 2026-05-04 20:20 | 18.24500 | -66.61287 | 12128 ft | 334 kts | 92° |
| 2026-05-04 20:20 | 18.24445 | -66.58854 | 12044 ft | 342 kts | 93° |
| 2026-05-04 20:20 | 18.24382 | -66.56296 | 11970 ft | 351 kts | 93° |
| 2026-05-04 20:20 | 18.24322 | -66.53789 | 11856 ft | 337 kts | 93° |
| 2026-05-04 20:21 | 18.24369 | -66.51361 | 11554 ft | 330 kts | 84° |
| 2026-05-04 20:21 | 18.25009 | -66.48995 | 10679 ft | 346 kts | 66° |
| 2026-05-04 20:21 | 18.27652 | -66.44799 | 10057 ft | 334 kts | 58° |
| 2026-05-04 20:22 | 18.28901 | -66.42846 | 9978 ft | 314 kts | 58° |
| 2026-05-04 20:22 | 18.30086 | -66.40970 | 9562 ft | 303 kts | 59° |
| 2026-05-04 20:22 | 18.31251 | -66.39114 | 8676 ft | 308 kts | 59° |
| 2026-05-04 20:22 | 18.32437 | -66.37218 | 7739 ft | 312 kts | 59° |
| 2026-05-04 20:23 | 18.33640 | -66.35303 | 6836 ft | 316 kts | 58° |
| 2026-05-04 20:23 | 18.34858 | -66.33368 | 5907 ft | 317 kts | 58° |
| 2026-05-04 20:23 | 18.36075 | -66.31443 | 4989 ft | 316 kts | 58° |
| 2026-05-04 20:23 | 18.37295 | -66.29528 | 4303 ft | 309 kts | 58° |
| 2026-05-04 20:24 | 18.38454 | -66.27718 | 4062 ft | 287 kts | 59° |
| 2026-05-04 20:24 | 18.39530 | -66.26036 | 3928 ft | 267 kts | 59° |
| 2026-05-04 20:24 | 18.40529 | -66.24469 | 3813 ft | 250 kts | 59° |
| 2026-05-04 20:24 | 18.41499 | -66.22942 | 3751 ft | 250 kts | 60° |
| 2026-05-04 20:25 | 18.42462 | -66.21425 | 3694 ft | 249 kts | 59° |
| 2026-05-04 20:25 | 18.43250 | -66.19821 | 3369 ft | 247 kts | 79° |
| 2026-05-04 20:25 | 18.43391 | -66.18053 | 3022 ft | 243 kts | 92° |
| 2026-05-04 20:25 | 18.43385 | -66.16284 | 2694 ft | 238 kts | 92° |
| 2026-05-04 20:26 | 18.43382 | -66.14616 | 2395 ft | 217 kts | 93° |
| 2026-05-04 20:26 | 18.43381 | -66.13116 | 2154 ft | 195 kts | 92° |
| 2026-05-04 20:26 | 18.43377 | -66.11718 | 1894 ft | 188 kts | 92° |
| 2026-05-04 20:26 | 18.43374 | -66.10365 | 1645 ft | 181 kts | 94° |
| 2026-05-04 20:27 | 18.43372 | -66.09056 | 1418 ft | 175 kts | 94° |
| 2026-05-04 20:27 | 18.43371 | -66.07867 | 1219 ft | 149 kts | 91° |
| 2026-05-04 20:27 | 18.43368 | -66.06808 | 1028 ft | 137 kts | 94° |
| 2026-05-04 20:27 | 18.43366 | -66.05809 | 862 ft | 137 kts | 93° |
| 2026-05-04 20:28 | 18.43363 | -66.04804 | 696 ft | 137 kts | 90° |
| 2026-05-04 20:28 | 18.43361 | -66.03820 | 533 ft | 138 kts | 90° |
| 2026-05-04 20:28 | 18.43359 | -66.02806 | 329 ft | 137 kts | 92° |
| 2026-05-04 20:28 | 18.43357 | -66.01820 | 156 ft | 136 kts | 92° |
| 2026-05-04 20:29 | 18.43356 | -66.01666 | 122 ft | 134 kts | 93° |
| 2026-05-04 20:30 | 18.43354 | -66.01014 | 79 ft | 130 kts | 94° |
| 2026-05-04 20:30 | 18.43349 | -66.00013 | 20 ft | 55 kts | 89° |
| 2026-05-04 20:30 | 18.43349 | -65.99858 | 20 ft | 21 kts | 91° |
| 2026-05-04 20:30 | 18.43348 | -65.99785 | 20 ft | 15 kts | 88° |